Copper King, Montana
Current Conditions -  °F | °C
As of 1:53 PM on Wednesday 26 Nov 2014 (Local Time) from KMLP Reporting Station
Moderate Fog Moderate Fog  
Wind Chill: 27°   Ceiling: 100
Heat Index: 34°   Visibility: 0mi
Dew Point: 34°   Wind: 8mph
Humidity: 100%   Direction: 270°W
Pressure: 30.12"   Gusts: NA
Location:  47.6853°N, 115.247°W
Report Text: KMLP 262053Z AUTO 27007KT M1/4SM FG VV001 01/01 A3012 RMK AO2 RAE07UPB07E11 SLP171 P0000 60002 T00110011 58002
Loading
Personal Weather Stations






























Interactive Weather Map New forecast layout! Learn more

10-Day Weather Forecast

Advertisements
Track Severe Weather on mobile